createdAt,value
2022-08-02T00:00:47.235Z,2.35
2022-08-02T00:03:16.159Z,2.38
2022-08-02T00:05:53.110Z,2.67
2022-08-02T00:08:24.342Z,2.58
2022-08-02T00:10:52.684Z,2.53
2022-08-02T00:13:21.521Z,2.75
2022-08-02T00:15:49.839Z,2.80
2022-08-02T00:18:19.090Z,2.40
2022-08-02T00:20:47.481Z,3.10
2022-08-02T00:23:16.596Z,3.00
2022-08-02T00:25:55.041Z,3.00
2022-08-02T00:28:27.738Z,2.50
2022-08-02T00:30:58.176Z,2.70
2022-08-02T00:34:26.205Z,2.60
2022-08-02T00:36:17.535Z,2.58
2022-08-02T00:38:48.357Z,2.55
2022-08-02T00:41:20.407Z,2.58
2022-08-02T00:43:50.876Z,2.35
2022-08-02T00:46:21.372Z,2.42
2022-08-02T00:48:50.643Z,2.40
2022-08-02T00:51:19.294Z,2.65
2022-08-02T00:53:48.556Z,2.60
2022-08-02T00:56:19.250Z,2.70
2022-08-02T00:58:48.486Z,2.78
2022-08-02T01:01:17.455Z,2.78
2022-08-02T01:03:45.899Z,2.58
2022-08-02T01:06:15.206Z,2.42
2022-08-02T01:08:44.425Z,2.55
2022-08-02T01:11:13.864Z,2.50
2022-08-02T01:13:44.153Z,2.50
2022-08-02T01:16:20.090Z,3.45
2022-08-02T01:18:54.512Z,3.15
2022-08-02T01:21:36.800Z,3.30
2022-08-02T01:24:21.277Z,2.38
2022-08-02T01:26:55.157Z,2.70
2022-08-02T01:29:30.539Z,2.58
2022-08-02T01:32:05.233Z,2.95
2022-08-02T01:34:36.891Z,2.50
2022-08-02T01:37:12.635Z,2.22
2022-08-02T01:39:44.636Z,2.47
2022-08-02T01:42:14.055Z,3.08
2022-08-02T01:44:47.288Z,2.90
2022-08-02T01:47:20.411Z,3.42
2022-08-02T01:49:53.013Z,2.70
2022-08-02T01:52:22.906Z,2.85
2022-08-02T01:54:58.478Z,2.85
2022-08-02T01:57:29.291Z,3.03
2022-08-02T02:00:01.890Z,2.92
2022-08-02T02:02:33.378Z,3.33
2022-08-02T02:05:04.202Z,3.50
2022-08-02T02:07:36.363Z,2.97
2022-08-02T02:10:09.125Z,2.85
2022-08-02T02:12:40.459Z,2.95
2022-08-02T02:15:14.290Z,2.95
2022-08-02T02:17:52.875Z,4.07
2022-08-02T02:20:57.198Z,2.70
2022-08-02T02:23:26.169Z,2.30
2022-08-02T02:25:59.482Z,2.70
2022-08-02T02:28:32.871Z,2.92
2022-08-02T02:31:08.555Z,2.50
2022-08-02T02:33:42.265Z,2.10
2022-08-02T02:36:12.910Z,1.95
2022-08-02T02:38:42.452Z,2.03
2022-08-02T02:41:12.599Z,2.17
2022-08-02T02:43:43.242Z,2.10
2022-08-02T02:46:14.516Z,2.25
2022-08-02T02:48:43.396Z,2.22
2022-08-02T02:51:14.157Z,2.20
2022-08-02T02:54:30.383Z,2.17
2022-08-02T02:56:34.363Z,2.15
2022-08-02T02:59:03.503Z,2.10
2022-08-02T03:01:55.929Z,2.03
2022-08-02T03:04:25.139Z,2.20
2022-08-02T03:06:54.155Z,2.10
2022-08-02T03:09:22.627Z,2.13
2022-08-02T03:11:52.911Z,1.90
2022-08-02T03:14:21.436Z,2.00
2022-08-02T03:16:53.675Z,2.28
2022-08-02T03:19:24.115Z,2.42
2022-08-02T03:22:02.119Z,2.28
2022-08-02T03:24:30.466Z,1.80
2022-08-02T03:26:59.399Z,2.10
2022-08-02T03:29:30.401Z,1.90
2022-08-02T03:32:04.651Z,1.73
2022-08-02T03:34:33.075Z,1.70
2022-08-02T03:37:04.146Z,1.70
2022-08-02T03:39:33.487Z,1.85
2022-08-02T03:42:03.299Z,1.83
2022-08-02T03:44:32.659Z,1.80
2022-08-02T03:47:02.151Z,1.73
2022-08-02T03:49:32.743Z,1.50
2022-08-02T03:52:02.894Z,1.73
2022-08-02T03:54:33.037Z,1.92
2022-08-02T03:57:03.960Z,1.70
2022-08-02T03:59:41.748Z,2.17
2022-08-02T04:02:10.707Z,1.40
2022-08-02T04:04:41.814Z,1.40
2022-08-02T04:07:10.531Z,1.67
2022-08-02T04:09:39.855Z,1.60
2022-08-02T04:12:09.603Z,1.60
2022-08-02T04:14:38.249Z,1.88
2022-08-02T04:17:10.563Z,1.67
2022-08-02T04:19:44.568Z,1.45
2022-08-02T04:22:19.875Z,1.73
2022-08-02T04:24:51.786Z,1.60
2022-08-02T04:27:50.814Z,1.60
2022-08-02T04:30:12.924Z,1.58
2022-08-02T04:32:42.199Z,1.40
2022-08-02T04:35:19.058Z,1.40
2022-08-02T04:38:08.600Z,1.80
2022-08-02T04:40:39.157Z,1.40
2022-08-02T04:43:09.037Z,1.67
2022-08-02T04:45:38.314Z,1.67
2022-08-02T04:48:08.189Z,1.55
2022-08-02T04:50:37.944Z,1.33
2022-08-02T04:53:06.772Z,1.40
2022-08-02T04:55:35.209Z,1.30
2022-08-02T04:58:23.769Z,1.60
2022-08-02T05:00:53.045Z,1.48
2022-08-02T05:03:22.226Z,1.55
2022-08-02T05:05:52.323Z,1.35
2022-08-02T05:08:20.650Z,1.50
2022-08-02T05:10:49.796Z,1.55
2022-08-02T05:13:18.144Z,1.42
2022-08-02T05:15:49.690Z,1.60
2022-08-02T05:18:18.079Z,1.90
2022-08-02T05:20:46.614Z,1.30
2022-08-02T05:23:16.687Z,1.63
2022-08-02T05:25:45.320Z,1.52
2022-08-02T05:28:14.267Z,1.40
2022-08-02T05:30:42.611Z,1.83
2022-08-02T05:33:11.988Z,1.63
2022-08-02T05:35:40.689Z,1.70
2022-08-02T05:38:10.313Z,1.60
2022-08-02T05:40:46.695Z,1.20
2022-08-02T05:43:24.201Z,1.58
2022-08-02T05:45:54.905Z,1.40
2022-08-02T05:48:27.648Z,1.55
2022-08-02T05:51:05.723Z,1.40
2022-08-02T05:53:39.888Z,1.13
2022-08-02T05:56:20.130Z,1.50
2022-08-02T05:58:57.581Z,1.90
2022-08-02T06:01:30.514Z,1.48
2022-08-02T06:04:01.290Z,1.42
2022-08-02T06:06:33.383Z,1.35
2022-08-02T06:09:03.967Z,1.42
2022-08-02T06:11:38.508Z,1.80
2022-08-02T06:14:08.304Z,1.70
2022-08-02T06:16:42.505Z,1.70
2022-08-02T06:19:13.205Z,1.50
2022-08-02T06:22:30.614Z,1.73
2022-08-02T06:24:34.068Z,1.50
2022-08-02T06:27:04.331Z,1.50
2022-08-02T06:29:38.515Z,1.60
2022-08-02T06:32:10.196Z,1.67
2022-08-02T06:34:39.054Z,1.67
2022-08-02T06:37:15.574Z,1.73
2022-08-02T06:39:46.846Z,1.60
2022-08-02T06:42:27.312Z,1.58
2022-08-02T06:44:58.499Z,1.63
2022-08-02T06:47:27.956Z,2.10
2022-08-02T06:49:56.958Z,1.52
2022-08-02T06:52:29.620Z,1.98
2022-08-02T06:55:00.485Z,1.92
2022-08-02T06:57:32.293Z,2.10
2022-08-02T07:00:02.918Z,1.92
2022-08-02T07:02:32.591Z,2.00
2022-08-02T07:05:01.096Z,2.08
2022-08-02T07:07:29.979Z,2.10
2022-08-02T07:10:01.279Z,1.63
2022-08-02T07:12:32.599Z,2.00
2022-08-02T07:15:03.026Z,2.22
2022-08-02T07:17:32.296Z,1.90
2022-08-02T07:20:02.156Z,2.10
2022-08-02T07:22:31.372Z,1.98
2022-08-02T07:25:01.981Z,1.77
2022-08-02T07:27:32.152Z,2.38
2022-08-02T07:30:02.187Z,2.35
2022-08-02T07:32:33.044Z,2.22
2022-08-02T07:35:05.144Z,2.25
2022-08-02T07:37:53.607Z,2.28
2022-08-02T07:40:25.587Z,2.60
2022-08-02T07:43:02.769Z,2.50
2022-08-02T07:45:35.656Z,2.45
2022-08-02T07:48:06.041Z,2.33
2022-08-02T07:50:34.872Z,2.60
2022-08-02T07:53:03.240Z,2.00
2022-08-02T07:55:39.681Z,2.50
2022-08-02T07:58:13.496Z,2.42
2022-08-02T08:00:43.695Z,2.85
2022-08-02T08:03:12.426Z,2.60
2022-08-02T08:05:41.035Z,2.40
2022-08-02T08:08:16.684Z,2.70
2022-08-02T08:10:46.091Z,2.45
2022-08-02T08:13:16.819Z,2.38
2022-08-02T08:15:51.734Z,2.90
2022-08-02T08:18:21.751Z,2.10
2022-08-02T08:20:51.636Z,2.15
2022-08-02T08:23:20.212Z,2.40
2022-08-02T08:25:48.785Z,2.28
2022-08-02T08:28:18.523Z,2.30
2022-08-02T08:30:47.567Z,2.85
2022-08-02T08:33:16.707Z,2.55
2022-08-02T08:35:45.320Z,2.70
2022-08-02T08:38:15.786Z,3.05
2022-08-02T08:40:44.775Z,2.60
2022-08-02T08:43:14.706Z,2.88
2022-08-02T08:45:46.607Z,2.63
2022-08-02T08:48:30.996Z,3.28
2022-08-02T08:51:05.696Z,3.08
2022-08-02T08:53:41.030Z,2.65
2022-08-02T08:56:15.908Z,2.90
2022-08-02T08:58:47.379Z,3.30
2022-08-02T09:01:18.096Z,2.42
2022-08-02T09:03:46.940Z,2.90
2022-08-02T09:06:15.957Z,2.38
2022-08-02T09:08:44.876Z,2.60
2022-08-02T09:11:15.775Z,2.33
2022-08-02T09:13:53.648Z,2.05
2022-08-02T09:16:35.184Z,2.60
2022-08-02T09:19:18.623Z,2.13
2022-08-02T09:21:48.343Z,2.13
2022-08-02T09:24:18.660Z,2.30
2022-08-02T09:26:48.003Z,2.33
2022-08-02T09:29:17.184Z,2.35
2022-08-02T09:31:49.963Z,2.28
2022-08-02T09:34:20.071Z,2.38
2022-08-02T09:36:48.731Z,2.30
2022-08-02T09:39:26.674Z,2.30
2022-08-02T09:42:10.585Z,2.25
2022-08-02T09:44:39.660Z,2.20
2022-08-02T09:47:18.107Z,2.05
2022-08-02T09:49:52.385Z,2.10
2022-08-02T09:52:37.079Z,2.08
2022-08-02T09:55:13.421Z,2.03
2022-08-02T09:57:41.885Z,2.17
2022-08-02T10:00:14.240Z,2.28
2022-08-02T10:03:21.639Z,2.08
2022-08-02T10:05:57.333Z,2.25
2022-08-02T10:08:33.687Z,2.70
2022-08-02T10:11:03.475Z,2.00
2022-08-02T10:13:34.612Z,1.95
2022-08-02T10:16:04.788Z,2.10
2022-08-02T10:18:39.246Z,2.03
2022-08-02T10:21:14.777Z,2.47
2022-08-02T10:23:45.574Z,2.17
2022-08-02T10:26:17.186Z,2.33
2022-08-02T10:28:49.316Z,1.83
2022-08-02T10:31:22.384Z,1.92
2022-08-02T10:33:53.885Z,1.73
2022-08-02T10:36:27.477Z,2.10
2022-08-02T10:38:58.741Z,2.10
2022-08-02T10:41:45.164Z,1.88
2022-08-02T10:44:26.660Z,1.83
2022-08-02T10:47:23.247Z,1.95
2022-08-02T10:49:55.442Z,2.00
2022-08-02T10:52:24.824Z,1.80
2022-08-02T10:54:57.124Z,2.03
2022-08-02T10:57:28.279Z,1.90
2022-08-02T10:59:59.249Z,1.65
2022-08-02T11:02:41.879Z,1.85
2022-08-02T11:05:17.869Z,1.50
2022-08-02T11:07:49.426Z,1.42
2022-08-02T11:10:38.730Z,1.63
2022-08-02T11:13:10.892Z,1.50
2022-08-02T11:16:01.228Z,1.80
2022-08-02T11:19:06.680Z,1.48
2022-08-02T11:21:37.332Z,1.40
2022-08-02T11:24:31.080Z,1.30
2022-08-02T11:27:00.858Z,1.33
2022-08-02T11:29:38.743Z,1.33
2022-08-02T11:32:08.557Z,1.20
2022-08-02T11:34:38.391Z,1.33
2022-08-02T11:37:08.374Z,1.33
2022-08-02T11:39:37.553Z,1.52
2022-08-02T11:42:06.146Z,1.60
2022-08-02T11:47:33.020Z,1.33
2022-08-02T11:50:08.655Z,1.42
2022-08-02T11:52:39.065Z,1.67
2022-08-02T11:55:09.702Z,1.90
2022-08-02T11:58:04.783Z,1.50
2022-08-02T12:00:30.755Z,1.60
2022-08-02T12:03:00.046Z,1.50
2022-08-02T12:08:22.178Z,1.38
2022-08-02T12:10:54.164Z,1.40
2022-08-02T12:13:22.624Z,1.52
2022-08-02T12:15:51.351Z,1.58
2022-08-02T12:18:39.727Z,1.42
2022-08-02T12:21:23.264Z,1.20
2022-08-02T12:23:59.438Z,1.17
2022-08-02T12:26:30.782Z,1.40
2022-08-02T12:29:01.383Z,1.15
2022-08-02T12:31:56.794Z,1.20
2022-08-02T12:34:31.706Z,1.38
2022-08-02T12:37:06.347Z,1.20
2022-08-02T12:39:41.665Z,1.20
2022-08-02T12:42:12.193Z,1.33
2022-08-02T12:44:52.597Z,1.00
2022-08-02T12:47:22.598Z,1.27
2022-08-02T12:50:12.052Z,1.10
2022-08-02T12:52:40.911Z,1.13
2022-08-02T12:55:25.937Z,0.90
2022-08-02T12:58:14.706Z,1.05
2022-08-02T13:00:54.528Z,0.98
2022-08-02T13:04:11.238Z,1.25
2022-08-02T13:06:41.021Z,1.30
2022-08-02T13:09:02.583Z,1.00
2022-08-02T13:11:32.385Z,1.40
2022-08-02T13:14:01.116Z,1.20
2022-08-02T13:16:31.639Z,1.20
2022-08-02T13:19:00.839Z,0.95
2022-08-02T13:21:41.774Z,0.90
2022-08-02T13:24:37.861Z,1.27
2022-08-02T13:27:09.508Z,1.00
2022-08-02T13:29:39.312Z,1.13
2022-08-02T13:32:07.969Z,1.00
2022-08-02T13:34:36.378Z,1.05
2022-08-02T13:37:05.861Z,0.90
2022-08-02T13:39:34.282Z,1.00
2022-08-02T13:42:03.320Z,1.20
2022-08-02T13:44:33.197Z,0.85
2022-08-02T13:47:02.396Z,0.90
2022-08-02T13:49:50.752Z,1.13
2022-08-02T13:52:20.663Z,0.82
2022-08-02T13:54:49.274Z,1.17
2022-08-02T13:57:17.695Z,0.95
2022-08-02T13:59:56.938Z,1.10
2022-08-02T14:02:28.365Z,1.50
2022-08-02T14:04:58.082Z,0.90
2022-08-02T14:07:26.457Z,0.90
2022-08-02T14:09:55.429Z,0.98
2022-08-02T14:12:23.824Z,0.75
2022-08-02T14:14:54.138Z,0.93
2022-08-02T14:17:22.538Z,1.20
2022-08-02T14:19:51.797Z,1.08
2022-08-02T14:22:20.246Z,0.88
2022-08-02T14:24:49.156Z,0.90
2022-08-02T14:27:17.532Z,1.13
2022-08-02T14:29:48.125Z,0.90
2022-08-02T14:32:17.966Z,0.90
2022-08-02T14:34:46.517Z,0.93
2022-08-02T14:37:17.020Z,0.80
2022-08-02T14:40:00.095Z,0.88
2022-08-02T14:42:29.917Z,1.13
2022-08-02T14:44:58.426Z,1.15
2022-08-02T14:47:28.179Z,0.88
2022-08-02T14:49:56.856Z,1.00
2022-08-02T14:52:25.585Z,0.90
2022-08-02T14:54:53.976Z,1.00
2022-08-02T14:57:24.596Z,0.73
2022-08-02T14:59:53.108Z,0.93
2022-08-02T15:02:22.156Z,0.98
2022-08-02T15:04:51.967Z,0.90
2022-08-02T15:07:20.722Z,0.90
2022-08-02T15:09:49.725Z,0.85
2022-08-02T15:12:18.364Z,0.90
2022-08-02T15:14:47.135Z,1.00
2022-08-02T15:17:15.494Z,0.95
2022-08-02T15:19:58.943Z,0.70
2022-08-02T15:22:30.990Z,0.80
2022-08-02T15:24:59.700Z,0.80
2022-08-02T15:27:28.891Z,0.93
2022-08-02T15:30:00.355Z,1.00
2022-08-02T15:32:29.716Z,0.80
2022-08-02T15:34:58.110Z,0.90
2022-08-02T15:37:31.015Z,0.77
2022-08-02T15:40:01.806Z,0.70
2022-08-02T15:42:31.140Z,1.00
2022-08-02T15:45:00.721Z,0.90
2022-08-02T15:47:29.503Z,0.85
2022-08-02T15:49:58.690Z,0.80
2022-08-02T15:52:27.589Z,0.98
2022-08-02T15:54:56.766Z,0.93
2022-08-02T15:57:37.583Z,0.90
2022-08-02T16:00:15.755Z,1.00
2022-08-02T16:02:47.871Z,0.70
2022-08-02T16:05:18.492Z,1.10
2022-08-02T16:07:47.548Z,0.70
2022-08-02T16:10:17.094Z,0.70
2022-08-02T16:12:47.872Z,0.80
2022-08-02T16:15:16.379Z,0.73
2022-08-02T16:17:48.912Z,0.77
2022-08-02T16:20:23.391Z,0.70
2022-08-02T16:22:51.823Z,0.60
2022-08-02T16:25:20.780Z,0.70
2022-08-02T16:28:06.638Z,0.82
2022-08-02T16:30:37.150Z,0.80
2022-08-02T16:33:05.707Z,0.77
2022-08-02T16:35:35.167Z,0.70
2022-08-02T16:38:03.586Z,0.88
2022-08-02T16:40:34.388Z,0.85
2022-08-02T16:43:09.165Z,0.70
2022-08-02T16:45:37.901Z,0.80
2022-08-02T16:48:07.693Z,0.90
2022-08-02T16:50:38.421Z,0.60
2022-08-02T16:53:07.723Z,1.10
2022-08-02T16:55:37.247Z,0.70
2022-08-02T16:58:09.516Z,0.70
2022-08-02T17:00:38.782Z,0.60
2022-08-02T17:03:16.839Z,0.80
2022-08-02T17:05:56.200Z,0.80
2022-08-02T17:08:31.831Z,0.77
2022-08-02T17:11:03.571Z,0.75
2022-08-02T17:13:37.949Z,0.80
2022-08-02T17:16:26.014Z,0.77
2022-08-02T17:18:56.614Z,1.00
2022-08-02T17:21:24.990Z,0.60
2022-08-02T17:24:05.191Z,0.95
2022-08-02T17:26:35.562Z,0.80
2022-08-02T17:29:16.425Z,0.70
2022-08-02T17:32:04.791Z,0.75
2022-08-02T17:34:37.242Z,0.65
2022-08-02T17:37:06.757Z,0.90
2022-08-02T17:39:43.911Z,0.80
2022-08-02T17:42:23.464Z,1.00
2022-08-02T17:45:00.991Z,0.80
2022-08-02T17:47:42.079Z,0.90
2022-08-02T17:50:12.490Z,0.70
2022-08-02T17:52:51.776Z,0.90
2022-08-02T17:55:22.665Z,0.93
2022-08-02T17:57:57.822Z,0.70
2022-08-02T18:00:34.738Z,1.02
2022-08-02T18:03:05.809Z,1.10
2022-08-02T18:05:39.675Z,0.75
2022-08-02T18:08:22.906Z,0.77
2022-08-02T18:10:52.764Z,0.90
2022-08-02T18:13:21.171Z,0.88
2022-08-02T18:15:59.070Z,0.85
2022-08-02T18:18:30.366Z,0.85
2022-08-02T18:21:08.190Z,0.70
2022-08-02T18:23:58.621Z,0.70
2022-08-02T18:26:29.314Z,0.88
2022-08-02T18:28:58.604Z,0.70
2022-08-02T18:31:28.766Z,0.70
2022-08-02T18:34:08.504Z,0.70
2022-08-02T18:36:37.037Z,0.80
2022-08-02T18:39:16.852Z,1.00
2022-08-02T18:41:47.927Z,0.95
2022-08-02T18:44:17.232Z,0.80
2022-08-02T18:46:49.319Z,0.88
2022-08-02T18:49:18.536Z,0.82
2022-08-02T18:51:47.014Z,1.10
2022-08-02T18:54:16.687Z,0.95
2022-08-02T18:56:59.317Z,0.80
2022-08-02T18:59:27.964Z,0.90
2022-08-02T19:02:06.826Z,1.00
2022-08-02T19:04:35.463Z,1.15
2022-08-02T19:07:07.673Z,0.98
2022-08-02T19:09:40.104Z,1.10
2022-08-02T19:12:11.333Z,0.90
2022-08-02T19:14:41.465Z,1.02
2022-08-02T19:17:53.959Z,0.80
2022-08-02T19:20:00.131Z,1.02
2022-08-02T19:22:29.935Z,0.93
2022-08-02T19:25:01.563Z,1.02
2022-08-02T19:27:32.508Z,0.93
2022-08-02T19:30:03.279Z,1.20
2022-08-02T19:32:40.217Z,1.05
2022-08-02T19:35:28.257Z,1.08
2022-08-02T19:38:07.366Z,0.80
2022-08-02T19:40:37.020Z,0.90
2022-08-02T19:44:20.806Z,0.90
2022-08-02T19:45:57.137Z,0.82
2022-08-02T19:48:28.105Z,1.17
2022-08-02T19:51:01.181Z,1.02
2022-08-02T19:53:46.957Z,1.00
2022-08-02T19:56:25.032Z,1.10
2022-08-02T19:58:57.566Z,0.80
2022-08-02T20:01:36.609Z,1.10
2022-08-02T20:04:13.073Z,0.90
2022-08-02T20:06:47.493Z,1.20
2022-08-02T20:09:21.001Z,0.98
2022-08-02T20:14:40.364Z,1.02
2022-08-02T20:17:21.574Z,1.25
2022-08-02T20:19:52.284Z,1.17
2022-08-02T20:22:20.671Z,1.00
2022-08-02T20:24:49.666Z,1.20
2022-08-02T20:27:21.752Z,1.15
2022-08-02T20:29:53.077Z,1.25
2022-08-02T20:32:24.681Z,1.27
2022-08-02T20:34:54.881Z,1.45
2022-08-02T20:37:59.800Z,1.15
2022-08-02T20:43:02.458Z,1.20
2022-08-02T20:45:33.721Z,1.20
2022-08-02T20:48:02.571Z,1.15
2022-08-02T20:50:53.223Z,1.38
2022-08-02T20:53:25.924Z,1.30
2022-08-02T20:55:58.294Z,1.20
2022-08-02T20:58:28.104Z,1.30
2022-08-02T21:00:59.241Z,1.30
2022-08-02T21:03:39.466Z,1.33
2022-08-02T21:06:15.065Z,1.35
2022-08-02T21:08:45.948Z,1.27
2022-08-02T21:11:15.323Z,1.48
2022-08-02T21:13:46.754Z,1.50
2022-08-02T21:16:19.160Z,1.73
2022-08-02T21:18:49.109Z,1.65
2022-08-02T21:21:20.532Z,1.58
2022-08-02T21:23:54.849Z,1.60
2022-08-02T21:26:27.801Z,1.73
2022-08-02T21:28:58.101Z,1.75
2022-08-02T21:31:29.845Z,1.65
2022-08-02T21:34:00.268Z,1.77
2022-08-02T21:36:33.152Z,1.60
2022-08-02T21:39:05.834Z,1.45
2022-08-02T21:44:28.638Z,1.40
2022-08-02T21:46:58.675Z,1.38
2022-08-02T21:50:08.506Z,1.60
2022-08-02T21:52:19.298Z,1.60
2022-08-02T21:54:47.825Z,1.40
2022-08-02T21:57:17.471Z,1.63
2022-08-02T21:59:46.910Z,1.50
2022-08-02T22:02:18.686Z,1.67
2022-08-02T22:04:48.332Z,1.60
2022-08-02T22:07:23.667Z,1.70
2022-08-02T22:09:53.982Z,1.70
2022-08-02T22:12:26.488Z,1.75
2022-08-02T22:14:56.528Z,1.50
2022-08-02T22:17:51.597Z,1.88
2022-08-02T22:20:19.946Z,1.55
2022-08-02T22:22:53.228Z,1.45
2022-08-02T22:25:31.475Z,1.58
2022-08-02T22:28:38.592Z,1.50
2022-08-02T22:30:56.639Z,1.65
2022-08-02T22:33:59.829Z,1.70
2022-08-02T22:36:31.681Z,1.70
2022-08-02T22:39:02.467Z,1.90
2022-08-02T22:42:02.312Z,1.63
2022-08-02T22:44:20.430Z,1.63
2022-08-02T22:46:50.506Z,1.70
2022-08-02T22:49:37.683Z,1.77
2022-08-02T22:52:10.750Z,1.85
2022-08-02T22:54:40.667Z,1.48
2022-08-02T22:57:12.845Z,1.70
2022-08-02T22:58:55.966Z,1.30
2022-08-02T22:59:07.335Z,1.10
2022-08-02T22:59:41.845Z,2.13
2022-08-02T23:02:10.529Z,1.55
2022-08-02T23:04:39.362Z,1.65
2022-08-02T23:07:08.499Z,1.73
2022-08-02T23:09:37.491Z,1.92
2022-08-02T23:12:07.983Z,1.70
2022-08-02T23:14:37.367Z,1.80
2022-08-02T23:17:23.336Z,1.83
2022-08-02T23:19:52.536Z,1.67
2022-08-02T23:22:29.569Z,1.83
2022-08-02T23:25:02.362Z,1.65
2022-08-02T23:27:33.116Z,1.48
2022-08-02T23:30:02.581Z,1.75
2022-08-02T23:32:31.912Z,1.63
2022-08-02T23:35:01.376Z,1.83
2022-08-02T23:37:57.943Z,1.80
2022-08-02T23:40:39.394Z,1.85
2022-08-02T23:43:14.497Z,1.67
2022-08-02T23:45:45.973Z,1.88
2022-08-02T23:48:14.690Z,1.90
2022-08-02T23:50:44.005Z,1.77
2022-08-02T23:53:12.356Z,1.80
2022-08-02T23:55:41.533Z,1.60
2022-08-02T23:58:13.366Z,1.80
